Ayer, MA

3:26 PM EST on March 06, 2015 (GMT -0500)
Ayer Center | Change Station
CLOSE
Current Station
Personal Weather Station
Location: Ayer, MA
Elevation: 230 ft
Nearby Weather Stations

Elev 230 ft 42.56 °N, 71.59 °W | Updated 57 seconds ago

Clear
Clear
29.7 °F
Feels Like 30 °F
N
2.7
Wind Variable Wind from SSE
Gusts 4.9 mph

Today
High -- | Low -- °F
--% Chance of Precip.
Yesterday
High -- | Low -- °F
Precip. -- in
6:14 AM 5:41 PM
Full, 99% visible
Pressure 30.40 in
Visibility 10.0 miles
Clouds Clear
Windchill 30 °F
Dew Point -2 °F
Humidity 25%
Rainfall in
Snow Depth Not available.
UV 3 out of 12
Pollen .50 out of 12
Air Quality Not available.
Flu Activity Not available.
METAR KFIT 061952Z AUTO 00000KT 10SM CLR M02/M22 A3038 RMK AO2 SLP294 T10221217

More Conditions Fewer Conditions

Pressure 30.40 in
Visibility 10.0 miles
Clouds Clear
Windchill 30 °F
Dew Point -2 °F
Humidity 25%
Rainfall in
Snow Depth Not available.
UV 3 out of 12
Pollen .50 out of 12
Air Quality Not available.
Flu Activity Not available.
METAR KFIT 061952Z AUTO 00000KT 10SM CLR M02/M22 A3038 RMK AO2 SLP294 T10221217

More Conditions Fewer Conditions

10-Day Weather Forecast

Almanac

Astronomy

Mar. 06, 2015 Rise Set
Actual Time
Civil Twilight
Nautical Twilight
Astronomical Twilight
Moon
Length of Visible Light
Length of Day
Tomorrow will be .
, % of the Moon is Illuminated

Today's Extremes

State Highs State Lows

Community

WunderPhotos

Upload Photos

1,803,385 photos uploaded!

WunderBlogs® & News

Nearby

Air Quality

  Air Quality AQ Index Pollutant
Not available.

Snow Depth

Station Depth Elevation

Earthquake Activity

City Distance Mag. Time & Date
Minimum magnitude displayed is 2.5.

Coastal Water Temperatures

Place Temperature

Nearby Weather Stations